sensor_id;sensor_type;location;lat;lon;timestamp;P1;durP1;ratioP1;P2;durP2;ratioP2
20415;SDS011;10367;52.202;5.996;2023-03-13T00:00:26;21.43;;;10.13;;
20415;SDS011;10367;52.202;5.996;2023-03-13T00:02:55;20.90;;;10.93;;
20415;SDS011;10367;52.202;5.996;2023-03-13T00:05:25;24.27;;;11.57;;
20415;SDS011;10367;52.202;5.996;2023-03-13T00:07:54;28.13;;;12.90;;
20415;SDS011;10367;52.202;5.996;2023-03-13T00:10:23;32.10;;;11.47;;
20415;SDS011;10367;52.202;5.996;2023-03-13T00:12:56;20.17;;;10.60;;
20415;SDS011;10367;52.202;5.996;2023-03-13T00:15:27;22.60;;;10.97;;
20415;SDS011;10367;52.202;5.996;2023-03-13T00:17:56;26.33;;;11.33;;
20415;SDS011;10367;52.202;5.996;2023-03-13T00:20:28;20.90;;;10.93;;
20415;SDS011;10367;52.202;5.996;2023-03-13T00:22:57;33.50;;;11.73;;
20415;SDS011;10367;52.202;5.996;2023-03-13T00:25:27;22.93;;;11.77;;
20415;SDS011;10367;52.202;5.996;2023-03-13T00:27:56;26.57;;;10.67;;
20415;SDS011;10367;52.202;5.996;2023-03-13T00:30:25;24.37;;;10.77;;
20415;SDS011;10367;52.202;5.996;2023-03-13T00:32:55;25.17;;;10.70;;
20415;SDS011;10367;52.202;5.996;2023-03-13T00:35:24;38.40;;;11.80;;
20415;SDS011;10367;52.202;5.996;2023-03-13T00:38:03;29.60;;;11.40;;
20415;SDS011;10367;52.202;5.996;2023-03-13T00:40:36;37.37;;;14.43;;
20415;SDS011;10367;52.202;5.996;2023-03-13T00:43:05;34.67;;;11.63;;
20415;SDS011;10367;52.202;5.996;2023-03-13T00:45:37;32.17;;;13.10;;
20415;SDS011;10367;52.202;5.996;2023-03-13T00:48:06;32.70;;;13.87;;
20415;SDS011;10367;52.202;5.996;2023-03-13T00:50:36;42.03;;;14.17;;
20415;SDS011;10367;52.202;5.996;2023-03-13T00:53:08;29.13;;;11.40;;
20415;SDS011;10367;52.202;5.996;2023-03-13T00:55:40;25.53;;;12.47;;
20415;SDS011;10367;52.202;5.996;2023-03-13T00:58:25;29.43;;;10.93;;
20415;SDS011;10367;52.202;5.996;2023-03-13T01:01:04;22.07;;;10.47;;
20415;SDS011;10367;52.202;5.996;2023-03-13T01:03:36;34.87;;;13.13;;
20415;SDS011;10367;52.202;5.996;2023-03-13T01:06:08;23.20;;;10.27;;
20415;SDS011;10367;52.202;5.996;2023-03-13T01:08:38;32.53;;;13.57;;
20415;SDS011;10367;52.202;5.996;2023-03-13T01:11:10;29.17;;;11.27;;
20415;SDS011;10367;52.202;5.996;2023-03-13T01:13:40;35.57;;;14.17;;
20415;SDS011;10367;52.202;5.996;2023-03-13T01:16:09;24.17;;;10.37;;
20415;SDS011;10367;52.202;5.996;2023-03-13T01:18:41;37.43;;;13.13;;
20415;SDS011;10367;52.202;5.996;2023-03-13T01:21:13;36.43;;;12.27;;
20415;SDS011;10367;52.202;5.996;2023-03-13T01:23:45;22.37;;;10.93;;
20415;SDS011;10367;52.202;5.996;2023-03-13T01:26:14;23.80;;;10.90;;
20415;SDS011;10367;52.202;5.996;2023-03-13T01:28:43;36.30;;;13.13;;
20415;SDS011;10367;52.202;5.996;2023-03-13T01:31:13;26.27;;;11.00;;
20415;SDS011;10367;52.202;5.996;2023-03-13T01:33:43;28.53;;;12.60;;
20415;SDS011;10367;52.202;5.996;2023-03-13T01:39:05;21.37;;;11.43;;
20415;SDS011;10367;52.202;5.996;2023-03-13T01:41:35;26.90;;;12.80;;
20415;SDS011;10367;52.202;5.996;2023-03-13T01:44:05;22.47;;;11.03;;
20415;SDS011;10367;52.202;5.996;2023-03-13T01:46:45;36.47;;;13.17;;
20415;SDS011;10367;52.202;5.996;2023-03-13T01:49:15;17.97;;;9.83;;
20415;SDS011;10367;52.202;5.996;2023-03-13T01:51:48;29.03;;;12.57;;
20415;SDS011;10367;52.202;5.996;2023-03-13T01:54:20;16.53;;;9.60;;
20415;SDS011;10367;52.202;5.996;2023-03-13T01:56:53;18.07;;;9.87;;
20415;SDS011;10367;52.202;5.996;2023-03-13T01:59:27;12.20;;;9.47;;
20415;SDS011;10367;52.202;5.996;2023-03-13T02:01:59;15.97;;;10.47;;
20415;SDS011;10367;52.202;5.996;2023-03-13T02:04:30;17.30;;;10.50;;
20415;SDS011;10367;52.202;5.996;2023-03-13T02:07:05;16.40;;;10.30;;
20415;SDS011;10367;52.202;5.996;2023-03-13T02:09:40;20.07;;;10.70;;
20415;SDS011;10367;52.202;5.996;2023-03-13T02:12:12;13.10;;;9.97;;
20415;SDS011;10367;52.202;5.996;2023-03-13T02:14:42;25.80;;;12.87;;
20415;SDS011;10367;52.202;5.996;2023-03-13T02:17:14;20.60;;;10.80;;
20415;SDS011;10367;52.202;5.996;2023-03-13T02:19:44;20.70;;;11.73;;
20415;SDS011;10367;52.202;5.996;2023-03-13T02:22:18;12.83;;;9.60;;
20415;SDS011;10367;52.202;5.996;2023-03-13T02:24:55;17.30;;;9.83;;
20415;SDS011;10367;52.202;5.996;2023-03-13T02:27:30;15.90;;;10.70;;
20415;SDS011;10367;52.202;5.996;2023-03-13T02:29:59;12.70;;;9.80;;
20415;SDS011;10367;52.202;5.996;2023-03-13T02:32:30;17.13;;;11.13;;
20415;SDS011;10367;52.202;5.996;2023-03-13T02:35:00;15.07;;;9.67;;
20415;SDS011;10367;52.202;5.996;2023-03-13T02:37:33;13.77;;;9.27;;
20415;SDS011;10367;52.202;5.996;2023-03-13T02:40:05;12.03;;;9.50;;
20415;SDS011;10367;52.202;5.996;2023-03-13T02:42:38;20.63;;;11.40;;
20415;SDS011;10367;52.202;5.996;2023-03-13T02:45:12;12.97;;;9.87;;
20415;SDS011;10367;52.202;5.996;2023-03-13T02:47:44;24.67;;;12.43;;
20415;SDS011;10367;52.202;5.996;2023-03-13T02:50:13;12.90;;;10.20;;
20415;SDS011;10367;52.202;5.996;2023-03-13T02:52:44;29.50;;;13.80;;
20415;SDS011;10367;52.202;5.996;2023-03-13T02:55:18;10.97;;;9.40;;
20415;SDS011;10367;52.202;5.996;2023-03-13T02:57:55;18.87;;;11.37;;
20415;SDS011;10367;52.202;5.996;2023-03-13T03:00:24;13.80;;;9.93;;
20415;SDS011;10367;52.202;5.996;2023-03-13T03:02:53;15.97;;;10.20;;
20415;SDS011;10367;52.202;5.996;2023-03-13T03:05:22;13.53;;;10.37;;
20415;SDS011;10367;52.202;5.996;2023-03-13T03:07:51;14.37;;;10.60;;
20415;SDS011;10367;52.202;5.996;2023-03-13T03:10:20;14.33;;;11.10;;
20415;SDS011;10367;52.202;5.996;2023-03-13T03:12:49;23.87;;;12.77;;
20415;SDS011;10367;52.202;5.996;2023-03-13T03:15:20;12.23;;;9.80;;
20415;SDS011;10367;52.202;5.996;2023-03-13T03:17:52;16.53;;;11.57;;
20415;SDS011;10367;52.202;5.996;2023-03-13T03:20:20;15.67;;;10.73;;
20415;SDS011;10367;52.202;5.996;2023-03-13T03:22:49;30.30;;;14.87;;
20415;SDS011;10367;52.202;5.996;2023-03-13T03:25:18;13.07;;;10.57;;
20415;SDS011;10367;52.202;5.996;2023-03-13T03:27:50;28.23;;;13.30;;
20415;SDS011;10367;52.202;5.996;2023-03-13T03:30:21;18.47;;;11.63;;
20415;SDS011;10367;52.202;5.996;2023-03-13T03:32:49;24.97;;;13.67;;
20415;SDS011;10367;52.202;5.996;2023-03-13T03:35:18;21.70;;;11.83;;
20415;SDS011;10367;52.202;5.996;2023-03-13T03:37:47;18.63;;;12.17;;
20415;SDS011;10367;52.202;5.996;2023-03-13T03:40:17;16.20;;;10.77;;
20415;SDS011;10367;52.202;5.996;2023-03-13T03:42:47;25.63;;;14.37;;
20415;SDS011;10367;52.202;5.996;2023-03-13T03:45:16;18.23;;;11.80;;
20415;SDS011;10367;52.202;5.996;2023-03-13T03:47:46;25.00;;;13.80;;
20415;SDS011;10367;52.202;5.996;2023-03-13T03:50:15;17.83;;;11.70;;
20415;SDS011;10367;52.202;5.996;2023-03-13T03:52:44;26.10;;;13.93;;
20415;SDS011;10367;52.202;5.996;2023-03-13T03:55:13;20.73;;;12.40;;
20415;SDS011;10367;52.202;5.996;2023-03-13T03:57:41;23.83;;;13.93;;
20415;SDS011;10367;52.202;5.996;2023-03-13T04:00:11;13.83;;;11.73;;
20415;SDS011;10367;52.202;5.996;2023-03-13T04:02:41;26.83;;;13.50;;
20415;SDS011;10367;52.202;5.996;2023-03-13T04:05:14;15.83;;;11.90;;
20415;SDS011;10367;52.202;5.996;2023-03-13T04:07:42;31.80;;;16.27;;
20415;SDS011;10367;52.202;5.996;2023-03-13T04:10:11;18.30;;;13.53;;
20415;SDS011;10367;52.202;5.996;2023-03-13T04:12:42;27.20;;;14.57;;
20415;SDS011;10367;52.202;5.996;2023-03-13T04:15:11;19.90;;;12.90;;
20415;SDS011;10367;52.202;5.996;2023-03-13T04:17:40;30.70;;;16.20;;
20415;SDS011;10367;52.202;5.996;2023-03-13T04:20:09;24.23;;;12.17;;
20415;SDS011;10367;52.202;5.996;2023-03-13T04:22:41;29.83;;;16.03;;
20415;SDS011;10367;52.202;5.996;2023-03-13T04:25:10;18.23;;;12.63;;
20415;SDS011;10367;52.202;5.996;2023-03-13T04:27:39;24.90;;;13.70;;
20415;SDS011;10367;52.202;5.996;2023-03-13T04:30:08;18.77;;;13.30;;
20415;SDS011;10367;52.202;5.996;2023-03-13T04:32:38;29.97;;;15.70;;
20415;SDS011;10367;52.202;5.996;2023-03-13T04:35:07;20.00;;;12.97;;
20415;SDS011;10367;52.202;5.996;2023-03-13T04:37:36;23.87;;;15.03;;
20415;SDS011;10367;52.202;5.996;2023-03-13T04:40:07;21.17;;;13.30;;
20415;SDS011;10367;52.202;5.996;2023-03-13T04:42:39;33.37;;;16.33;;
20415;SDS011;10367;52.202;5.996;2023-03-13T04:45:11;17.37;;;12.73;;
20415;SDS011;10367;52.202;5.996;2023-03-13T04:47:40;18.67;;;13.63;;
20415;SDS011;10367;52.202;5.996;2023-03-13T04:50:12;17.93;;;12.10;;
20415;SDS011;10367;52.202;5.996;2023-03-13T04:52:41;20.30;;;14.37;;
20415;SDS011;10367;52.202;5.996;2023-03-13T04:55:16;15.53;;;12.50;;
20415;SDS011;10367;52.202;5.996;2023-03-13T04:57:45;28.10;;;16.87;;
20415;SDS011;10367;52.202;5.996;2023-03-13T05:00:14;19.33;;;14.03;;
20415;SDS011;10367;52.202;5.996;2023-03-13T05:02:43;29.77;;;16.47;;
20415;SDS011;10367;52.202;5.996;2023-03-13T05:05:12;23.53;;;15.47;;
20415;SDS011;10367;52.202;5.996;2023-03-13T05:07:41;30.57;;;17.03;;
20415;SDS011;10367;52.202;5.996;2023-03-13T05:10:13;24.13;;;14.90;;
20415;SDS011;10367;52.202;5.996;2023-03-13T05:12:46;31.30;;;17.67;;
20415;SDS011;10367;52.202;5.996;2023-03-13T05:15:15;25.30;;;15.20;;
20415;SDS011;10367;52.202;5.996;2023-03-13T05:17:44;35.27;;;18.43;;
20415;SDS011;10367;52.202;5.996;2023-03-13T05:20:15;21.07;;;14.40;;
20415;SDS011;10367;52.202;5.996;2023-03-13T05:22:44;31.17;;;17.73;;
20415;SDS011;10367;52.202;5.996;2023-03-13T05:25:12;21.30;;;15.40;;
20415;SDS011;10367;52.202;5.996;2023-03-13T05:27:44;36.50;;;18.13;;
20415;SDS011;10367;52.202;5.996;2023-03-13T05:30:14;23.30;;;15.23;;
20415;SDS011;10367;52.202;5.996;2023-03-13T05:32:45;28.63;;;16.40;;
20415;SDS011;10367;52.202;5.996;2023-03-13T05:35:16;20.97;;;13.90;;
20415;SDS011;10367;52.202;5.996;2023-03-13T05:37:45;23.43;;;15.97;;
20415;SDS011;10367;52.202;5.996;2023-03-13T05:40:16;20.57;;;14.57;;
20415;SDS011;10367;52.202;5.996;2023-03-13T05:42:45;26.10;;;16.03;;
20415;SDS011;10367;52.202;5.996;2023-03-13T05:45:15;39.30;;;18.07;;
20415;SDS011;10367;52.202;5.996;2023-03-13T05:47:45;36.97;;;18.70;;
20415;SDS011;10367;52.202;5.996;2023-03-13T05:50:13;27.30;;;16.47;;
20415;SDS011;10367;52.202;5.996;2023-03-13T05:52:42;30.40;;;16.97;;
20415;SDS011;10367;52.202;5.996;2023-03-13T05:55:11;20.53;;;14.07;;
20415;SDS011;10367;52.202;5.996;2023-03-13T05:57:42;24.83;;;15.37;;
20415;SDS011;10367;52.202;5.996;2023-03-13T06:00:12;25.43;;;14.83;;
20415;SDS011;10367;52.202;5.996;2023-03-13T06:02:44;32.27;;;17.00;;
20415;SDS011;10367;52.202;5.996;2023-03-13T06:05:13;19.93;;;13.17;;
20415;SDS011;10367;52.202;5.996;2023-03-13T06:07:41;37.80;;;16.83;;
20415;SDS011;10367;52.202;5.996;2023-03-13T06:10:10;15.63;;;12.73;;
20415;SDS011;10367;52.202;5.996;2023-03-13T06:12:41;27.50;;;15.40;;
20415;SDS011;10367;52.202;5.996;2023-03-13T06:15:10;25.23;;;14.67;;
20415;SDS011;10367;52.202;5.996;2023-03-13T06:17:40;28.93;;;16.33;;
20415;SDS011;10367;52.202;5.996;2023-03-13T06:20:11;19.47;;;12.93;;
20415;SDS011;10367;52.202;5.996;2023-03-13T06:22:40;25.07;;;14.87;;
20415;SDS011;10367;52.202;5.996;2023-03-13T06:25:37;19.30;;;13.33;;
20415;SDS011;10367;52.202;5.996;2023-03-13T06:28:06;21.77;;;13.57;;
20415;SDS011;10367;52.202;5.996;2023-03-13T06:30:35;20.57;;;13.30;;
20415;SDS011;10367;52.202;5.996;2023-03-13T06:33:04;22.93;;;14.37;;
20415;SDS011;10367;52.202;5.996;2023-03-13T06:35:34;25.30;;;15.20;;
20415;SDS011;10367;52.202;5.996;2023-03-13T06:38:21;16.37;;;13.27;;
20415;SDS011;10367;52.202;5.996;2023-03-13T06:40:52;19.27;;;13.40;;
20415;SDS011;10367;52.202;5.996;2023-03-13T06:43:21;15.77;;;12.67;;
20415;SDS011;10367;52.202;5.996;2023-03-13T06:45:51;16.90;;;13.13;;
20415;SDS011;10367;52.202;5.996;2023-03-13T06:48:20;12.63;;;11.53;;
20415;SDS011;10367;52.202;5.996;2023-03-13T06:50:52;24.03;;;14.63;;
20415;SDS011;10367;52.202;5.996;2023-03-13T06:53:22;20.97;;;14.23;;
20415;SDS011;10367;52.202;5.996;2023-03-13T06:55:59;25.27;;;14.53;;
20415;SDS011;10367;52.202;5.996;2023-03-13T06:58:28;17.83;;;13.53;;
20415;SDS011;10367;52.202;5.996;2023-03-13T07:00:59;18.60;;;13.40;;
20415;SDS011;10367;52.202;5.996;2023-03-13T07:03:32;20.23;;;13.90;;
20415;SDS011;10367;52.202;5.996;2023-03-13T07:06:03;17.83;;;13.17;;
20415;SDS011;10367;52.202;5.996;2023-03-13T07:08:35;33.10;;;17.07;;
20415;SDS011;10367;52.202;5.996;2023-03-13T07:11:05;17.93;;;13.60;;
20415;SDS011;10367;52.202;5.996;2023-03-13T07:13:35;22.40;;;14.40;;
20415;SDS011;10367;52.202;5.996;2023-03-13T07:16:05;20.20;;;14.03;;
20415;SDS011;10367;52.202;5.996;2023-03-13T07:18:35;19.13;;;13.70;;
20415;SDS011;10367;52.202;5.996;2023-03-13T07:21:06;15.10;;;12.93;;
20415;SDS011;10367;52.202;5.996;2023-03-13T07:23:36;16.80;;;12.47;;
20415;SDS011;10367;52.202;5.996;2023-03-13T07:26:06;14.77;;;12.53;;
20415;SDS011;10367;52.202;5.996;2023-03-13T07:28:44;19.57;;;13.43;;
20415;SDS011;10367;52.202;5.996;2023-03-13T07:31:17;15.27;;;11.77;;
20415;SDS011;10367;52.202;5.996;2023-03-13T07:33:47;24.87;;;15.50;;
20415;SDS011;10367;52.202;5.996;2023-03-13T07:36:19;18.40;;;12.20;;
20415;SDS011;10367;52.202;5.996;2023-03-13T07:38:49;20.90;;;15.40;;
20415;SDS011;10367;52.202;5.996;2023-03-13T07:41:21;14.43;;;11.23;;
20415;SDS011;10367;52.202;5.996;2023-03-13T07:43:52;20.33;;;13.03;;
20415;SDS011;10367;52.202;5.996;2023-03-13T07:46:21;16.60;;;12.83;;
20415;SDS011;10367;52.202;5.996;2023-03-13T07:48:51;21.87;;;13.00;;
20415;SDS011;10367;52.202;5.996;2023-03-13T07:51:25;14.03;;;12.63;;
20415;SDS011;10367;52.202;5.996;2023-03-13T07:54:08;16.07;;;12.13;;
20415;SDS011;10367;52.202;5.996;2023-03-13T07:56:38;14.77;;;13.20;;
20415;SDS011;10367;52.202;5.996;2023-03-13T07:59:07;17.50;;;13.17;;
20415;SDS011;10367;52.202;5.996;2023-03-13T08:01:37;22.70;;;12.07;;
20415;SDS011;10367;52.202;5.996;2023-03-13T08:04:07;14.80;;;13.07;;
20415;SDS011;10367;52.202;5.996;2023-03-13T08:06:43;22.57;;;14.53;;
20415;SDS011;10367;52.202;5.996;2023-03-13T08:09:12;14.27;;;12.30;;
20415;SDS011;10367;52.202;5.996;2023-03-13T08:12:05;16.43;;;12.73;;
20415;SDS011;10367;52.202;5.996;2023-03-13T08:14:39;22.67;;;15.30;;
20415;SDS011;10367;52.202;5.996;2023-03-13T08:17:09;13.43;;;12.13;;
20415;SDS011;10367;52.202;5.996;2023-03-13T08:19:40;24.87;;;14.37;;
20415;SDS011;10367;52.202;5.996;2023-03-13T08:22:19;14.30;;;12.17;;
20415;SDS011;10367;52.202;5.996;2023-03-13T08:24:49;11.90;;;10.83;;
20415;SDS011;10367;52.202;5.996;2023-03-13T08:27:24;13.30;;;11.93;;
20415;SDS011;10367;52.202;5.996;2023-03-13T08:30:10;15.77;;;12.20;;
20415;SDS011;10367;52.202;5.996;2023-03-13T08:32:40;20.50;;;13.30;;
20415;SDS011;10367;52.202;5.996;2023-03-13T08:35:13;14.97;;;12.77;;
20415;SDS011;10367;52.202;5.996;2023-03-13T08:37:47;19.03;;;13.77;;
20415;SDS011;10367;52.202;5.996;2023-03-13T08:40:22;17.03;;;13.70;;
20415;SDS011;10367;52.202;5.996;2023-03-13T08:43:00;22.00;;;14.53;;
20415;SDS011;10367;52.202;5.996;2023-03-13T08:45:31;15.73;;;12.37;;
20415;SDS011;10367;52.202;5.996;2023-03-13T08:48:02;13.50;;;12.20;;
20415;SDS011;10367;52.202;5.996;2023-03-13T08:50:38;20.77;;;12.73;;
20415;SDS011;10367;52.202;5.996;2023-03-13T08:53:17;14.40;;;13.00;;
20415;SDS011;10367;52.202;5.996;2023-03-13T08:55:52;18.33;;;14.63;;
20415;SDS011;10367;52.202;5.996;2023-03-13T08:58:30;15.10;;;12.47;;
20415;SDS011;10367;52.202;5.996;2023-03-13T09:01:13;16.37;;;12.73;;
20415;SDS011;10367;52.202;5.996;2023-03-13T09:03:44;16.20;;;13.57;;
20415;SDS011;10367;52.202;5.996;2023-03-13T09:06:19;13.77;;;12.37;;
20415;SDS011;10367;52.202;5.996;2023-03-13T09:08:49;19.57;;;14.90;;
20415;SDS011;10367;52.202;5.996;2023-03-13T09:11:19;14.03;;;11.73;;
20415;SDS011;10367;52.202;5.996;2023-03-13T09:13:49;15.23;;;13.50;;
20415;SDS011;10367;52.202;5.996;2023-03-13T09:16:19;12.27;;;11.27;;
20415;SDS011;10367;52.202;5.996;2023-03-13T09:18:49;21.17;;;14.30;;
20415;SDS011;10367;52.202;5.996;2023-03-13T09:21:19;17.17;;;12.60;;
20415;SDS011;10367;52.202;5.996;2023-03-13T09:23:50;20.27;;;15.33;;
20415;SDS011;10367;52.202;5.996;2023-03-13T09:26:20;13.47;;;12.10;;
20415;SDS011;10367;52.202;5.996;2023-03-13T09:28:49;17.03;;;14.03;;
20415;SDS011;10367;52.202;5.996;2023-03-13T09:31:19;13.33;;;12.17;;
20415;SDS011;10367;52.202;5.996;2023-03-13T09:33:49;21.17;;;14.53;;
20415;SDS011;10367;52.202;5.996;2023-03-13T09:36:18;14.37;;;12.90;;
20415;SDS011;10367;52.202;5.996;2023-03-13T09:38:48;13.50;;;12.40;;
20415;SDS011;10367;52.202;5.996;2023-03-13T09:41:21;14.03;;;12.23;;
20415;SDS011;10367;52.202;5.996;2023-03-13T09:43:55;19.33;;;14.20;;
20415;SDS011;10367;52.202;5.996;2023-03-13T09:46:30;13.80;;;12.50;;
20415;SDS011;10367;52.202;5.996;2023-03-13T09:49:09;14.07;;;12.73;;
20415;SDS011;10367;52.202;5.996;2023-03-13T09:51:48;12.57;;;11.57;;
20415;SDS011;10367;52.202;5.996;2023-03-13T09:54:23;19.07;;;13.63;;
20415;SDS011;10367;52.202;5.996;2023-03-13T09:56:55;20.07;;;14.63;;
20415;SDS011;10367;52.202;5.996;2023-03-13T09:59:28;14.53;;;13.23;;
20415;SDS011;10367;52.202;5.996;2023-03-13T10:02:12;13.73;;;12.63;;
20415;SDS011;10367;52.202;5.996;2023-03-13T10:04:49;21.40;;;15.80;;
20415;SDS011;10367;52.202;5.996;2023-03-13T10:07:21;13.13;;;12.07;;
20415;SDS011;10367;52.202;5.996;2023-03-13T10:09:51;22.47;;;15.10;;
20415;SDS011;10367;52.202;5.996;2023-03-13T10:12:22;13.70;;;12.50;;
20415;SDS011;10367;52.202;5.996;2023-03-13T10:15:00;14.40;;;12.87;;
20415;SDS011;10367;52.202;5.996;2023-03-13T10:17:44;18.13;;;14.30;;
20415;SDS011;10367;52.202;5.996;2023-03-13T10:20:16;14.33;;;12.97;;
20415;SDS011;10367;52.202;5.996;2023-03-13T10:22:50;21.10;;;15.33;;
20415;SDS011;10367;52.202;5.996;2023-03-13T10:25:27;13.67;;;12.57;;
20415;SDS011;10367;52.202;5.996;2023-03-13T10:28:02;13.70;;;12.00;;
20415;SDS011;10367;52.202;5.996;2023-03-13T10:30:32;15.40;;;13.97;;
20415;SDS011;10367;52.202;5.996;2023-03-13T10:33:15;15.07;;;13.60;;
20415;SDS011;10367;52.202;5.996;2023-03-13T10:35:49;23.27;;;16.20;;
20415;SDS011;10367;52.202;5.996;2023-03-13T10:38:28;15.70;;;14.27;;
20415;SDS011;10367;52.202;5.996;2023-03-13T10:41:01;14.87;;;13.60;;
20415;SDS011;10367;52.202;5.996;2023-03-13T10:43:38;14.63;;;13.37;;
20415;SDS011;10367;52.202;5.996;2023-03-13T10:46:24;16.77;;;15.07;;
20415;SDS011;10367;52.202;5.996;2023-03-13T10:48:55;18.37;;;15.27;;
20415;SDS011;10367;52.202;5.996;2023-03-13T10:51:29;15.67;;;13.77;;
20415;SDS011;10367;52.202;5.996;2023-03-13T10:54:12;23.53;;;16.80;;
20415;SDS011;10367;52.202;5.996;2023-03-13T10:56:43;22.73;;;15.63;;
20415;SDS011;10367;52.202;5.996;2023-03-13T10:59:19;25.60;;;16.83;;
20415;SDS011;10367;52.202;5.996;2023-03-13T11:01:52;24.20;;;17.13;;
20415;SDS011;10367;52.202;5.996;2023-03-13T11:04:29;15.93;;;14.43;;
20415;SDS011;10367;52.202;5.996;2023-03-13T11:07:00;26.93;;;17.67;;
20415;SDS011;10367;52.202;5.996;2023-03-13T11:09:30;15.90;;;14.23;;
20415;SDS011;10367;52.202;5.996;2023-03-13T11:12:04;22.07;;;15.80;;
20415;SDS011;10367;52.202;5.996;2023-03-13T11:14:38;16.37;;;14.63;;
20415;SDS011;10367;52.202;5.996;2023-03-13T11:17:10;20.33;;;16.23;;
20415;SDS011;10367;52.202;5.996;2023-03-13T11:19:50;17.57;;;15.23;;
20415;SDS011;10367;52.202;5.996;2023-03-13T11:22:29;15.93;;;14.23;;
20415;SDS011;10367;52.202;5.996;2023-03-13T11:25:12;15.60;;;14.00;;
20415;SDS011;10367;52.202;5.996;2023-03-13T11:27:53;26.53;;;17.77;;
20415;SDS011;10367;52.202;5.996;2023-03-13T11:30:33;14.60;;;13.53;;
20415;SDS011;10367;52.202;5.996;2023-03-13T11:33:16;15.33;;;14.03;;
20415;SDS011;10367;52.202;5.996;2023-03-13T11:35:56;15.17;;;13.63;;
20415;SDS011;10367;52.202;5.996;2023-03-13T11:38:31;17.87;;;14.97;;
20415;SDS011;10367;52.202;5.996;2023-03-13T11:41:05;23.10;;;16.07;;
20415;SDS011;10367;52.202;5.996;2023-03-13T11:43:52;17.67;;;15.73;;
20415;SDS011;10367;52.202;5.996;2023-03-13T11:46:43;14.60;;;13.47;;
20415;SDS011;10367;52.202;5.996;2023-03-13T11:49:26;14.57;;;13.30;;
20415;SDS011;10367;52.202;5.996;2023-03-13T11:52:21;19.70;;;15.70;;
20415;SDS011;10367;52.202;5.996;2023-03-13T11:55:11;17.67;;;15.67;;
20415;SDS011;10367;52.202;5.996;2023-03-13T11:57:50;15.77;;;14.47;;
20415;SDS011;10367;52.202;5.996;2023-03-13T12:00:30;15.77;;;14.37;;
20415;SDS011;10367;52.202;5.996;2023-03-13T12:03:10;18.90;;;15.73;;
20415;SDS011;10367;52.202;5.996;2023-03-13T12:05:44;17.50;;;15.70;;
20415;SDS011;10367;52.202;5.996;2023-03-13T12:08:18;15.80;;;14.67;;
20415;SDS011;10367;52.202;5.996;2023-03-13T12:10:57;24.07;;;17.13;;
20415;SDS011;10367;52.202;5.996;2023-03-13T12:13:34;16.03;;;14.67;;
20415;SDS011;10367;52.202;5.996;2023-03-13T12:16:08;24.90;;;17.10;;
20415;SDS011;10367;52.202;5.996;2023-03-13T12:18:43;16.57;;;15.17;;
20415;SDS011;10367;52.202;5.996;2023-03-13T12:21:17;14.93;;;13.83;;
20415;SDS011;10367;52.202;5.996;2023-03-13T12:23:55;17.13;;;15.40;;
20415;SDS011;10367;52.202;5.996;2023-03-13T12:26:33;16.80;;;15.07;;
20415;SDS011;10367;52.202;5.996;2023-03-13T12:29:10;17.07;;;15.47;;
20415;SDS011;10367;52.202;5.996;2023-03-13T12:31:45;16.63;;;15.13;;
20415;SDS011;10367;52.202;5.996;2023-03-13T12:34:23;15.40;;;14.13;;
20415;SDS011;10367;52.202;5.996;2023-03-13T12:36:58;15.37;;;14.20;;
20415;SDS011;10367;52.202;5.996;2023-03-13T12:39:36;15.60;;;14.27;;
20415;SDS011;10367;52.202;5.996;2023-03-13T12:42:14;17.73;;;15.83;;
20415;SDS011;10367;52.202;5.996;2023-03-13T12:44:50;24.17;;;17.60;;
20415;SDS011;10367;52.202;5.996;2023-03-13T12:47:25;15.50;;;13.93;;
20415;SDS011;10367;52.202;5.996;2023-03-13T12:53:06;17.90;;;16.03;;
20415;SDS011;10367;52.202;5.996;2023-03-13T12:55:51;16.70;;;15.10;;
20415;SDS011;10367;52.202;5.996;2023-03-13T12:58:38;15.13;;;13.77;;
20415;SDS011;10367;52.202;5.996;2023-03-13T13:01:18;16.63;;;14.23;;
20415;SDS011;10367;52.202;5.996;2023-03-13T13:04:00;18.20;;;15.87;;
20415;SDS011;10367;52.202;5.996;2023-03-13T13:09:27;16.67;;;14.97;;
20415;SDS011;10367;52.202;5.996;2023-03-13T13:11:59;17.27;;;15.17;;
20415;SDS011;10367;52.202;5.996;2023-03-13T13:17:48;17.20;;;15.47;;
20415;SDS011;10367;52.202;5.996;2023-03-13T13:24:08;21.33;;;15.73;;
20415;SDS011;10367;52.202;5.996;2023-03-13T13:30:29;15.80;;;14.07;;
20415;SDS011;10367;52.202;5.996;2023-03-13T13:45:26;20.40;;;15.70;;
20415;SDS011;10367;52.202;5.996;2023-03-13T13:53:58;19.93;;;17.37;;
20415;SDS011;10367;52.202;5.996;2023-03-13T13:56:35;16.80;;;15.17;;
20415;SDS011;10367;52.202;5.996;2023-03-13T14:05:01;22.47;;;17.10;;
20415;SDS011;10367;52.202;5.996;2023-03-13T14:10:27;15.77;;;14.57;;
20415;SDS011;10367;52.202;5.996;2023-03-13T14:13:02;19.87;;;17.60;;
20415;SDS011;10367;52.202;5.996;2023-03-13T14:15:43;19.70;;;16.53;;
20415;SDS011;10367;52.202;5.996;2023-03-13T14:18:15;17.13;;;15.20;;
20415;SDS011;10367;52.202;5.996;2023-03-13T14:20:57;17.10;;;15.47;;
20415;SDS011;10367;52.202;5.996;2023-03-13T14:23:32;17.33;;;15.57;;
20415;SDS011;10367;52.202;5.996;2023-03-13T14:26:11;19.57;;;16.97;;
20415;SDS011;10367;52.202;5.996;2023-03-13T14:28:46;23.10;;;16.63;;
20415;SDS011;10367;52.202;5.996;2023-03-13T14:31:22;18.33;;;16.27;;
20415;SDS011;10367;52.202;5.996;2023-03-13T14:33:58;23.40;;;16.90;;
20415;SDS011;10367;52.202;5.996;2023-03-13T14:36:28;20.57;;;16.70;;
20415;SDS011;10367;52.202;5.996;2023-03-13T14:38:58;21.83;;;18.13;;
20415;SDS011;10367;52.202;5.996;2023-03-13T14:41:28;19.43;;;16.57;;
20415;SDS011;10367;52.202;5.996;2023-03-13T14:44:04;25.37;;;17.50;;
20415;SDS011;10367;52.202;5.996;2023-03-13T14:46:48;25.63;;;16.83;;
20415;SDS011;10367;52.202;5.996;2023-03-13T14:49:26;19.93;;;15.57;;
20415;SDS011;10367;52.202;5.996;2023-03-13T14:52:01;24.50;;;17.43;;
20415;SDS011;10367;52.202;5.996;2023-03-13T14:54:35;21.43;;;16.87;;
20415;SDS011;10367;52.202;5.996;2023-03-13T14:57:19;19.27;;;16.13;;
20415;SDS011;10367;52.202;5.996;2023-03-13T15:00:20;20.50;;;15.37;;
20415;SDS011;10367;52.202;5.996;2023-03-13T15:05:40;17.83;;;15.83;;
20415;SDS011;10367;52.202;5.996;2023-03-13T15:08:10;25.60;;;17.23;;
20415;SDS011;10367;52.202;5.996;2023-03-13T15:10:42;19.97;;;17.37;;
20415;SDS011;10367;52.202;5.996;2023-03-13T15:13:22;18.27;;;16.27;;
20415;SDS011;10367;52.202;5.996;2023-03-13T15:16:11;24.80;;;17.53;;
20415;SDS011;10367;52.202;5.996;2023-03-13T15:18:44;21.00;;;16.77;;
20415;SDS011;10367;52.202;5.996;2023-03-13T15:21:21;29.27;;;15.70;;
20415;SDS011;10367;52.202;5.996;2023-03-13T15:23:52;20.40;;;16.70;;
20415;SDS011;10367;52.202;5.996;2023-03-13T15:26:26;18.67;;;16.73;;
20415;SDS011;10367;52.202;5.996;2023-03-13T15:28:56;22.27;;;16.57;;
20415;SDS011;10367;52.202;5.996;2023-03-13T15:31:29;19.20;;;15.93;;
20415;SDS011;10367;52.202;5.996;2023-03-13T15:34:01;30.93;;;18.87;;
20415;SDS011;10367;52.202;5.996;2023-03-13T15:36:30;20.20;;;17.53;;
20415;SDS011;10367;52.202;5.996;2023-03-13T15:39:01;32.67;;;19.83;;
20415;SDS011;10367;52.202;5.996;2023-03-13T15:41:31;19.03;;;15.40;;
20415;SDS011;10367;52.202;5.996;2023-03-13T15:44:00;22.27;;;16.97;;